Time;durP1;ratioP1;P1;durP2;ratioP2;P2;SDS_P1;SDS_P2;PMS_P1;PMS_P2;Temp;Humidity;BMP_temperature;BMP_pressure;BME280_temperature;BME280_humidity;BME280_pressure;Samples;Min_cycle;Max_cycle;Signal;HPM_P1;HPM_P2
2021/12/23 00:00:10;;;;;;;;;19.75;17.50;;;;;2.88;57.82;102110.50;146600;563;46010;-78
2021/12/23 00:03:02;;;;;;;;;18.50;16.00;;;;;2.88;58.12;102118.19;146602;594;46008;-80
2021/12/23 00:05:56;;;;;;;;;15.50;14.50;;;;;2.85;58.05;102111.84;146599;739;46010;-78
2021/12/23 00:08:48;;;;;;;;;23.00;17.00;;;;;2.83;58.50;102115.91;146604;645;46020;-78
2021/12/23 00:11:41;;;;;;;;;18.75;18.00;;;;;2.82;58.04;102109.88;146598;589;46032;-77
2021/12/23 00:14:34;;;;;;;;;30.75;23.75;;;;;2.87;58.41;102112.94;146601;620;46021;-77
2021/12/23 00:17:51;;;;;;;;;22.50;17.75;;;;;2.86;58.18;102116.22;146599;578;46010;-78
2021/12/23 00:23:52;;;;;;;;;17.00;15.00;;;;;2.93;57.74;102122.16;146596;600;47010;-80
2021/12/23 00:26:45;;;;;;;;;21.50;17.50;;;;;2.94;57.54;102121.41;146600;620;46021;-80
2021/12/23 00:29:38;;;;;;;;;15.50;13.75;;;;;2.98;57.31;102120.06;146600;645;46017;-79
2021/12/23 00:32:30;;;;;;;;;58.00;43.25;;;;;3.02;57.40;102124.72;146602;580;46020;-79
2021/12/23 00:35:22;;;;;;;;;15.75;13.25;;;;;3.05;57.49;102125.06;146597;582;46017;-76
2021/12/23 00:38:21;;;;;;;;;16.50;14.50;;;;;3.08;56.98;102124.47;146601;567;46020;-79
2021/12/23 00:41:13;;;;;;;;;11.50;11.50;;;;;3.12;57.11;102121.50;146602;566;45917;-79
2021/12/23 00:44:05;;;;;;;;;16.50;11.00;;;;;3.16;56.52;102123.62;146605;631;46020;-80
2021/12/23 00:46:58;;;;;;;;;15.75;15.25;;;;;3.21;56.15;102118.22;146598;576;47010;-78
2021/12/23 00:49:50;;;;;;;;;21.75;19.00;;;;;3.30;56.14;102122.44;146605;574;46021;-78
2021/12/23 00:52:42;;;;;;;;;23.00;19.75;;;;;3.37;55.78;102124.91;146600;570;46016;-74
2021/12/23 00:55:35;;;;;;;;;15.75;13.25;;;;;3.41;55.95;102127.03;146602;580;47008;-75
2021/12/23 00:58:27;;;;;;;;;20.50;16.00;;;;;3.40;56.65;102130.34;146603;673;45017;-74
2021/12/23 01:01:19;;;;;;;;;18.50;15.50;;;;;3.40;56.03;102132.91;146602;616;46020;-74
2021/12/23 01:04:11;;;;;;;;;15.00;15.00;;;;;3.38;55.42;102137.88;146601;564;46016;-74
2021/12/23 01:07:04;;;;;;;;;18.75;14.00;;;;;3.41;55.67;102127.03;146603;569;46008;-74
2021/12/23 01:09:56;;;;;;;;;20.25;17.00;;;;;3.47;55.86;102127.66;146596;621;46917;-74
2021/12/23 01:12:53;;;;;;;;;15.75;15.25;;;;;3.53;55.84;102128.28;146601;636;47008;-79
2021/12/23 01:16:00;;;;;;;;;21.50;19.75;;;;;3.57;55.34;102127.84;146598;624;47010;-84
2021/12/23 01:18:55;;;;;;;;;27.00;22.00;;;;;3.55;55.02;102119.09;146602;590;46020;-84
2021/12/23 01:21:47;;;;;;;;;18.50;14.50;;;;;3.55;55.65;102131.00;146604;564;46017;-84
2021/12/23 01:24:40;;;;;;;;;21.50;16.50;;;;;3.52;55.97;102117.84;146604;668;46008;-82
2021/12/23 01:27:32;;;;;;;;;19.25;18.00;;;;;3.43;56.27;102122.97;146601;617;46017;-81
2021/12/23 01:30:25;;;;;;;;;22.50;18.50;;;;;3.30;56.48;102118.22;146602;572;46020;-82
2021/12/23 01:33:17;;;;;;;;;18.25;15.50;;;;;3.16;56.22;102111.69;146601;623;46010;-77
2021/12/23 01:36:10;;;;;;;;;21.00;17.25;;;;;3.07;56.21;102118.44;146603;571;47021;-79
2021/12/23 01:39:02;;;;;;;;;17.50;14.75;;;;;3.01;56.83;102120.38;146598;569;46010;-79
2021/12/23 01:41:54;;;;;;;;;15.00;11.00;;;;;2.90;56.83;102108.13;146600;625;46020;-78
2021/12/23 01:44:46;;;;;;;;;15.00;11.00;;;;;2.80;56.43;102111.34;146598;565;46010;-83
2021/12/23 01:47:39;;;;;;;;;14.00;10.75;;;;;2.75;56.52;102115.09;146603;573;46020;-85
2021/12/23 01:50:37;;;;;;;;;58.00;46.75;;;;;2.74;56.68;102113.28;146599;638;46016;-83
2021/12/23 01:53:29;;;;;;;;;69.25;53.50;;;;;2.71;56.74;102106.19;146601;593;46020;-84
2021/12/23 01:56:22;;;;;;;;;56.75;44.00;;;;;2.63;56.46;102111.25;146600;588;46017;-82
2021/12/23 01:59:15;;;;;;;;;13.50;13.50;;;;;2.51;56.94;102113.44;146602;615;46021;-84
2021/12/23 02:02:08;;;;;;;;;23.50;20.00;;;;;2.43;56.48;102111.72;146600;598;46016;-81
2021/12/23 02:05:00;;;;;;;;;18.75;16.00;;;;;2.39;56.14;102110.47;146601;611;47009;-80
2021/12/23 02:07:52;;;;;;;;;19.25;18.50;;;;;2.42;55.60;102108.25;146598;571;47010;-84
2021/12/23 02:10:45;;;;;;;;;9.00;9.00;;;;;2.49;56.34;102105.59;146602;653;46008;-83
2021/12/23 02:13:37;;;;;;;;;14.50;11.75;;;;;2.50;56.23;102103.94;146600;600;46016;-84
2021/12/23 02:16:30;;;;;;;;;10.00;9.50;;;;;2.44;56.21;102099.09;146606;614;46008;-81
2021/12/23 02:19:24;;;;;;;;;10.00;8.00;;;;;2.36;56.16;102094.78;146600;592;46010;-82
2021/12/23 02:22:16;;;;;;;;;6.25;4.25;;;;;2.30;56.44;102092.50;146601;608;46020;-83
2021/12/23 02:25:11;;;;;;;;;8.00;5.25;;;;;2.31;55.94;102099.44;146601;574;46017;-86
2021/12/23 02:28:07;;;;;;;;;9.00;6.50;;;;;2.37;55.84;102090.56;146603;637;46008;-83
2021/12/23 02:31:00;;;;;;;;;8.25;8.00;;;;;2.42;55.63;102086.88;146598;604;46010;-84
2021/12/23 02:33:52;;;;;;;;;10.50;8.00;;;;;2.50;55.46;102080.91;146608;628;45021;-84
2021/12/23 02:36:45;;;;;;;;;10.50;7.75;;;;;2.60;55.37;102087.91;146600;569;46016;-82
2021/12/23 02:39:37;;;;;;;;;36.25;29.75;;;;;2.67;55.43;102090.34;146604;603;46020;-83
2021/12/23 02:42:29;;;;;;;;;33.75;28.75;;;;;2.75;55.35;102087.84;146598;575;47010;-84
2021/12/23 02:45:22;;;;;;;;;16.50;14.25;;;;;2.82;55.39;102093.59;146602;587;47008;-85
2021/12/23 02:48:31;;;;;;;;;18.00;14.00;;;;;2.80;54.71;102087.41;146601;587;46016;-82
2021/12/23 02:51:24;;;;;;;;;8.50;8.00;;;;;2.80;54.25;102082.28;146600;569;46020;-79
2021/12/23 02:54:16;;;;;;;;;8.75;7.75;;;;;2.79;54.22;102086.50;146600;580;46016;-82
2021/12/23 02:57:09;;;;;;;;;11.00;9.00;;;;;2.79;54.62;102089.06;146604;603;46020;-83
2021/12/23 03:00:01;;;;;;;;;8.75;8.00;;;;;2.83;54.75;102085.16;146600;563;46016;-82
2021/12/23 03:02:54;;;;;;;;;28.75;24.00;;;;;2.88;54.70;102092.56;146604;592;46008;-78
2021/12/23 03:05:54;;;;;;;;;18.75;15.50;;;;;2.95;54.43;102092.44;146602;593;46010;-79
2021/12/23 03:08:49;;;;;;;;;9.50;8.25;;;;;3.03;54.08;102095.81;146602;572;46020;-83
2021/12/23 03:11:42;;;;;;;;;18.25;16.25;;;;;3.08;53.62;102089.50;146597;664;46017;-78
2021/12/23 03:14:34;;;;;;;;;15.25;10.75;;;;;3.15;53.90;102084.25;146600;593;47008;-80
2021/12/23 03:17:25;;;;;;;;;11.25;10.75;;;;;3.19;53.04;102088.03;146600;570;46016;-77
2021/12/23 03:20:18;;;;;;;;;15.25;10.00;;;;;3.20;53.49;102094.97;146604;573;45020;-83
2021/12/23 03:23:10;;;;;;;;;11.50;10.50;;;;;3.22;53.88;102088.34;146599;569;46012;-84
2021/12/23 03:26:03;;;;;;;;;8.25;6.25;;;;;3.20;53.99;102089.84;146602;603;46021;-85
2021/12/23 03:28:55;;;;;;;;;11.50;10.00;;;;;3.15;54.16;102091.94;146599;577;46010;-83
2021/12/23 03:31:48;;;;;;;;;12.75;12.00;;;;;3.04;54.13;102095.06;146605;573;46008;-87
2021/12/23 03:34:40;;;;;;;;;9.25;8.25;;;;;2.96;54.82;102095.91;146597;640;46917;-85
2021/12/23 03:37:32;;;;;;;;;13.50;10.25;;;;;2.86;54.52;102090.59;146608;625;46008;-84
2021/12/23 03:40:25;;;;;;;;;14.25;11.50;;;;;2.73;55.20;102097.00;146604;624;46017;-85
2021/12/23 03:43:18;;;;;;;;;37.00;29.00;;;;;2.61;55.61;102092.25;146608;565;45910;-81
2021/12/23 03:46:10;;;;;;;;;28.50;22.25;;;;;2.52;55.50;102089.62;146606;564;46010;-82
2021/12/23 03:49:05;;;;;;;;;18.00;15.00;;;;;2.45;56.00;102082.97;146606;572;46021;-80
2021/12/23 03:51:57;;;;;;;;;14.00;13.50;;;;;2.42;55.88;102095.44;146602;638;46016;-80
2021/12/23 03:54:49;;;;;;;;;9.25;7.75;;;;;2.43;55.93;102101.47;146608;571;46021;-88
2021/12/23 03:57:41;;;;;;;;;12.50;9.75;;;;;2.40;56.03;102098.59;146606;567;46916;-85
2021/12/23 04:00:33;;;;;;;;;9.50;8.50;;;;;2.38;56.43;102106.12;146610;584;45026;-86
2021/12/23 04:03:26;;;;;;;;;8.00;8.00;;;;;2.30;56.57;102097.59;146605;649;46012;-81
2021/12/23 04:06:18;;;;;;;;;7.00;7.00;;;;;2.23;57.13;102107.94;146610;645;46008;-83
2021/12/23 04:09:10;;;;;;;;;9.00;9.00;;;;;2.13;57.61;102105.16;146607;572;46017;-84
2021/12/23 04:12:02;;;;;;;;;10.75;9.00;;;;;2.05;58.02;102108.53;146606;585;47010;-79
2021/12/23 04:14:55;;;;;;;;;10.50;8.25;;;;;1.96;57.91;102103.38;146606;565;46016;-79
2021/12/23 04:17:47;;;;;;;;;9.25;7.50;;;;;1.93;57.89;102109.78;146612;597;46008;-79
2021/12/23 04:20:53;;;;;;;;;13.50;11.00;;;;;1.89;58.30;102116.22;146603;569;46016;-78
2021/12/23 04:23:45;;;;;;;;;10.75;10.75;;;;;1.83;57.98;102119.03;146610;589;46008;-78
2021/12/23 04:26:38;;;;;;;;;12.00;8.75;;;;;1.79;58.07;102124.56;146608;564;45876;-78
2021/12/23 04:29:30;;;;;;;;;13.00;10.25;;;;;1.75;58.25;102119.88;146607;574;46020;-79
2021/12/23 04:32:22;;;;;;;;;11.00;10.25;;;;;1.73;58.55;102126.44;146606;616;46917;-85
2021/12/23 04:35:16;;;;;;;;;12.00;9.50;;;;;1.68;59.11;102125.03;146606;569;46020;-78
2021/12/23 04:38:08;;;;;;;;;13.75;13.25;;;;;1.63;59.01;102131.31;146600;592;46010;-80
2021/12/23 04:41:00;;;;;;;;;8.75;7.75;;;;;1.61;59.03;102138.78;146600;570;46021;-80
2021/12/23 04:43:53;;;;;;;;;11.50;10.75;;;;;1.61;59.08;102130.22;146601;599;46016;-80
2021/12/23 04:46:45;;;;;;;;;12.50;10.50;;;;;1.57;59.39;102134.09;146602;565;46009;-80
2021/12/23 04:49:37;;;;;;;;;10.50;10.50;;;;;1.53;60.12;102136.16;146599;595;46916;-76
2021/12/23 04:52:29;;;;;;;;;10.50;10.50;;;;;1.45;60.48;102131.84;146601;705;46020;-77
2021/12/23 04:55:21;;;;;;;;;12.25;11.25;;;;;1.36;60.06;102135.19;146600;598;46016;-78
2021/12/23 04:58:14;;;;;;;;;16.50;9.50;;;;;1.33;60.69;102145.09;146603;626;46020;-78
2021/12/23 05:01:08;;;;;;;;;8.50;8.50;;;;;1.29;60.99;102145.50;146600;684;46016;-78
2021/12/23 05:04:01;;;;;;;;;11.50;8.00;;;;;1.24;60.57;102146.62;146604;666;46008;-79
2021/12/23 05:06:53;;;;;;;;;13.00;12.25;;;;;1.17;62.06;102146.69;146601;667;46016;-87
2021/12/23 05:09:45;;;;;;;;;12.75;12.25;;;;;1.12;62.01;102148.75;146607;594;46021;-84
2021/12/23 05:12:47;;;;;;;;;14.00;11.50;;;;;1.07;61.99;102149.88;146602;590;46016;-81
2021/12/23 05:15:39;;;;;;;;;28.25;25.75;;;;;1.08;62.07;102148.22;146603;711;46020;-82
2021/12/23 05:18:32;;;;;;;;;25.75;20.00;;;;;1.08;61.22;102150.78;146599;628;46016;-79
2021/12/23 05:21:24;;;;;;;;;25.00;22.00;;;;;1.08;63.01;102150.78;146600;674;46020;-87
2021/12/23 05:24:17;;;;;;;;;28.75;25.25;;;;;1.07;61.75;102154.06;146600;578;46024;-86
2021/12/23 05:27:09;;;;;;;;;21.75;20.75;;;;;1.07;62.58;102161.75;146605;579;46010;-81
2021/12/23 05:30:01;;;;;;;;;20.75;19.75;;;;;1.06;62.58;102160.84;146597;659;47010;-83
2021/12/23 05:32:54;;;;;;;;;26.75;26.25;;;;;1.03;62.61;102159.56;146601;601;46021;-84
2021/12/23 05:35:46;;;;;;;;;30.50;23.75;;;;;1.01;62.19;102167.06;146597;595;47010;-85
2021/12/23 05:38:39;;;;;;;;;34.00;28.75;;;;;1.00;61.58;102164.31;146602;588;46021;-84
2021/12/23 05:41:31;;;;;;;;;29.00;26.00;;;;;1.00;63.97;102172.91;146601;596;46010;-85
2021/12/23 05:44:23;;;;;;;;;34.25;30.00;;;;;0.97;62.76;102175.13;146602;666;46020;-84
2021/12/23 05:47:16;;;;;;;;;39.00;36.50;;;;;0.92;62.94;102173.69;146601;569;46017;-85
2021/12/23 05:50:09;;;;;;;;;49.25;36.25;;;;;0.90;63.31;102181.19;146602;576;47008;-86
2021/12/23 05:53:01;;;;;;;;;37.50;31.00;;;;;0.87;63.61;102174.81;146601;591;46010;-86
2021/12/23 05:55:54;;;;;;;;;53.25;38.25;;;;;0.83;62.78;102181.22;146605;584;45027;-88
2021/12/23 05:58:46;;;;;;;;;36.00;29.25;;;;;0.85;62.46;102181.41;146599;577;46016;-87
2021/12/23 06:01:39;;;;;;;;;30.25;29.75;;;;;0.87;63.18;102183.41;146603;565;47008;-76
2021/12/23 06:04:31;;;;;;;;;36.25;32.75;;;;;0.89;63.34;102181.91;146598;586;47012;-76
2021/12/23 06:07:24;;;;;;;;;38.50;34.50;;;;;0.91;63.54;102188.09;146601;613;46008;-86
2021/12/23 06:10:16;;;;;;;;;39.00;34.00;;;;;1.01;63.40;102181.47;146600;575;46016;-82
2021/12/23 06:13:09;;;;;;;;;47.75;39.00;;;;;1.05;62.77;102181.09;146603;588;46020;-85
2021/12/23 06:16:01;;;;;;;;;46.00;37.75;;;;;1.13;62.60;102185.41;146602;695;45917;-77
2021/12/23 06:18:53;;;;;;;;;45.50;38.50;;;;;1.21;62.42;102186.25;146603;566;46020;-78
2021/12/23 06:21:46;;;;;;;;;41.75;34.75;;;;;1.26;63.87;102192.81;146597;564;47012;-83
2021/12/23 06:24:39;;;;;;;;;45.00;34.50;;;;;1.27;62.67;102195.50;146602;633;46010;-80
2021/12/23 06:27:31;;;;;;;;;40.50;35.00;;;;;1.29;63.02;102198.25;146597;751;46016;-82
2021/12/23 06:30:23;;;;;;;;;45.25;38.25;;;;;1.27;63.71;102203.19;146604;579;46009;-78
2021/12/23 06:33:15;;;;;;;;;77.75;58.75;;;;;1.27;63.43;102204.81;146600;617;46016;-79
2021/12/23 06:36:08;;;;;;;;;55.25;43.50;;;;;1.30;62.68;102220.50;146602;618;46020;-79
2021/12/23 06:39:01;;;;;;;;;33.50;29.50;;;;;1.32;63.55;102221.59;146599;593;46011;-78
2021/12/23 06:41:53;;;;;;;;;44.50;36.50;;;;;1.38;63.81;102223.19;146599;607;46020;-80
2021/12/23 06:44:45;;;;;;;;;39.50;35.00;;;;;1.55;64.46;102224.16;146599;619;47010;-83
2021/12/23 06:47:38;;;;;;;;;27.50;26.00;;;;;2.08;63.04;102224.91;146602;615;46021;-90
2021/12/23 06:50:30;;;;;;;;;33.25;31.00;;;;;3.03;62.63;102230.72;146599;591;46010;-88
2021/12/23 06:53:23;;;;;;;;;34.75;29.75;;;;;4.26;60.01;102229.72;146601;573;46021;-87
2021/12/23 06:56:17;;;;;;;;;37.75;31.00;;;;;5.44;56.92;102231.03;146597;630;46016;-80
2021/12/23 06:59:13;;;;;;;;;35.50;28.50;;;;;6.46;55.06;102223.41;146601;576;46008;-78
2021/12/23 07:02:05;;;;;;;;;39.25;34.50;;;;;7.48;52.35;102225.66;146603;584;45017;-80
2021/12/23 07:04:58;;;;;;;;;40.75;34.50;;;;;8.41;50.49;102223.34;146602;579;47008;-77
2021/12/23 07:11:10;;;;;;;;;54.25;44.50;;;;;10.26;45.70;102224.38;146604;619;45022;-80
2021/12/23 07:14:02;;;;;;;;;55.25;42.50;;;;;10.83;44.52;102223.44;146600;618;46016;-82
2021/12/23 07:16:54;;;;;;;;;62.00;49.50;;;;;11.24;44.02;102222.97;146602;569;46021;-80
2021/12/23 07:19:47;;;;;;;;;59.75;45.50;;;;;11.67;43.40;102228.66;146599;569;46917;-80
2021/12/23 07:22:39;;;;;;;;;54.50;45.00;;;;;11.97;42.00;102230.84;146600;616;47008;-81
2021/12/23 07:25:32;;;;;;;;;63.75;47.75;;;;;12.08;41.35;102235.88;146599;612;47010;-78
2021/12/23 07:28:24;;;;;;;;;83.00;67.67;;;;;12.02;41.98;102232.06;146605;602;46020;-83
2021/12/23 07:31:16;;;;;;;;;72.75;55.50;;;;;11.99;41.59;102234.44;146598;671;46017;-84
2021/12/23 07:34:09;;;;;;;;;84.67;73.00;;;;;12.11;41.59;102233.47;146602;577;46020;-84
2021/12/23 07:37:01;;;;;;;;;70.50;54.25;;;;;12.26;41.86;102229.34;146603;571;46010;-88
2021/12/23 07:39:55;;;;;;;;;72.25;56.25;;;;;12.45;41.18;102240.19;146600;564;47008;-80
2021/12/23 07:42:54;;;;;;;;;81.25;64.50;;;;;12.62;41.13;102241.34;146600;616;46016;-83
2021/12/23 07:45:46;;;;;;;;;67.25;50.00;;;;;12.76;40.65;102239.63;146604;579;45021;-82
2021/12/23 07:48:39;;;;;;;;;60.75;48.25;;;;;12.85;40.04;102239.34;146599;576;46030;-79
2021/12/23 07:51:31;;;;;;;;;59.50;47.25;;;;;12.80;39.43;102236.44;146604;682;47008;-75
2021/12/23 07:54:23;;;;;;;;;50.50;41.25;;;;;12.52;38.86;102238.88;146601;611;46016;-76
2021/12/23 07:57:15;;;;;;;;;55.25;43.00;;;;;12.15;40.19;102241.62;146600;608;47008;-73
2021/12/23 08:00:09;;;;;;;;;54.00;43.00;;;;;11.80;40.90;102240.00;146598;604;46012;-78
2021/12/23 08:03:01;;;;;;;;;51.75;42.25;;;;;11.48;41.77;102236.81;146604;566;46008;-75
2021/12/23 08:05:54;;;;;;;;;52.25;40.50;;;;;11.32;42.16;102232.22;146600;596;47012;-68
2021/12/23 08:08:46;;;;;;;;;50.25;40.75;;;;;11.22;42.76;102241.06;146600;592;46021;-75
2021/12/23 08:11:38;;;;;;;;;44.50;39.00;;;;;11.22;43.48;102233.25;146600;587;46016;-74
2021/12/23 08:14:31;;;;;;;;;41.25;34.25;;;;;11.30;44.49;102232.09;146600;609;47009;-74
2021/12/23 08:17:23;;;;;;;;;36.75;30.25;;;;;11.43;44.79;102233.91;146597;574;47010;-74
2021/12/23 08:20:18;;;;;;;;;36.25;30.75;;;;;11.54;45.70;102238.16;146602;569;46020;-73
2021/12/23 08:23:10;;;;;;;;;44.75;35.00;;;;;11.68;44.69;102233.97;146600;613;46016;-74
2021/12/23 08:26:06;;;;;;;;;47.00;38.50;;;;;11.81;43.95;102240.94;146603;567;46020;-75
2021/12/23 08:29:01;;;;;;;;;47.25;37.50;;;;;11.92;44.23;102245.19;146598;610;46029;-75
2021/12/23 08:31:55;;;;;;;;;49.00;41.25;;;;;12.04;42.96;102239.94;146601;600;46911;-76
2021/12/23 08:34:47;;;;;;;;;50.25;40.25;;;;;12.07;42.08;102234.06;146597;589;47012;-75
2021/12/23 08:37:46;;;;;;;;;43.50;35.75;;;;;12.10;43.99;102239.50;146606;610;46008;-75
2021/12/23 08:40:39;;;;;;;;;49.75;40.25;;;;;12.22;43.03;102237.72;146603;657;46016;-75
2021/12/23 08:43:31;;;;;;;;;51.50;42.25;;;;;12.31;42.06;102247.88;146606;594;46020;-80
2021/12/23 08:46:23;;;;;;;;;53.25;42.75;;;;;12.33;42.04;102235.84;146608;571;45025;-78
2021/12/23 08:49:16;;;;;;;;;46.75;39.25;;;;;12.32;41.64;102245.34;146609;628;46008;-79
2021/12/23 08:52:09;;;;;;;;;46.75;38.25;;;;;12.30;41.24;102236.53;146608;588;45016;-78
2021/12/23 08:55:01;;;;;;;;;50.25;39.50;;;;;12.25;41.71;102241.44;146608;569;46020;-78
2021/12/23 08:57:53;;;;;;;;;48.50;40.75;;;;;12.28;42.10;102232.94;146605;620;46016;-77
2021/12/23 09:00:45;;;;;;;;;58.75;45.25;;;;;12.34;41.60;102238.56;146606;626;46020;-78
2021/12/23 09:03:38;;;;;;;;;64.00;50.50;;;;;12.42;41.39;102231.28;146604;606;46016;-81
2021/12/23 09:06:30;;;;;;;;;51.50;39.50;;;;;12.47;42.00;102232.50;146608;630;46008;-77
2021/12/23 09:09:24;;;;;;;;;50.00;39.75;;;;;12.46;41.77;102233.28;146607;578;46010;-73
2021/12/23 09:12:16;;;;;;;;;47.75;38.25;;;;;12.48;41.56;102226.47;146607;611;46010;-67
2021/12/23 09:15:10;;;;;;;;;41.50;35.50;;;;;12.55;41.25;102233.00;146604;606;46917;-77
2021/12/23 09:18:02;;;;;;;;;46.25;35.00;;;;;12.54;40.67;102220.78;146608;563;46020;-76
2021/12/23 09:20:55;;;;;;;;;49.50;39.00;;;;;12.47;41.96;102225.59;146603;644;46013;-76
2021/12/23 09:23:48;;;;;;;;;47.00;39.25;;;;;12.47;41.30;102216.87;146607;569;46026;-75
2021/12/23 09:33:00;;;;;;;;;50.75;38.75;;;;;12.64;41.55;102202.38;146608;583;46016;-76
2021/12/23 09:35:53;;;;;;;;;43.75;37.25;;;;;12.65;40.80;102193.81;146606;607;46009;-75
2021/12/23 09:38:45;;;;;;;;;40.75;34.75;;;;;12.59;40.87;102188.19;146601;613;46016;-75
2021/12/23 09:41:40;;;;;;;;;39.75;34.75;;;;;12.53;42.06;102180.88;146601;654;46020;-75
2021/12/23 09:44:33;;;;;;;;;41.00;33.25;;;;;12.61;40.82;102182.25;146601;583;46010;-76
2021/12/23 09:47:26;;;;;;;;;44.25;36.25;;;;;12.64;41.50;102182.47;146602;566;46008;-76
2021/12/23 09:50:21;;;;;;;;;35.75;30.25;;;;;12.62;40.97;102178.87;146599;583;46016;-76
2021/12/23 09:53:18;;;;;;;;;46.50;36.00;;;;;12.60;41.57;102164.84;146604;578;45911;-75
2021/12/23 09:56:11;;;;;;;;;44.25;35.75;;;;;12.56;41.26;102168.06;146600;632;46016;-76
2021/12/23 09:59:06;;;;;;;;;42.50;35.50;;;;;12.58;42.26;102157.75;146601;571;47010;-76
2021/12/23 10:01:58;;;;;;;;;43.75;35.00;;;;;12.68;41.25;102166.28;146601;565;46010;-76
2021/12/23 10:04:51;;;;;;;;;40.25;35.00;;;;;12.70;41.24;102156.84;146600;569;46020;-76
2021/12/23 10:07:45;;;;;;;;;41.25;35.25;;;;;12.71;41.04;102157.78;146598;625;46017;-76
2021/12/23 10:10:49;;;;;;;;;45.50;36.75;;;;;12.72;42.07;102149.16;146602;580;46020;-78
2021/12/23 10:33:43;;;;;;;;;43.50;33.25;;;;;13.00;41.38;102123.19;146595;618;47010;-76
2021/12/23 10:39:48;;;;;;;;;42.75;36.25;;;;;13.18;41.08;102118.25;146601;612;46016;-77
2021/12/23 10:42:40;;;;;;;;;37.25;30.25;;;;;13.30;40.26;102106.03;146602;564;46020;-77
2021/12/23 10:45:55;;;;;;;;;35.75;30.00;;;;;13.36;42.02;102106.41;146597;599;47010;-77
2021/12/23 10:52:18;;;;;;;;;42.25;33.50;;;;;13.72;40.87;102096.44;146600;599;46017;-78
2021/12/23 10:58:23;;;;;;;;;34.75;30.50;;;;;14.07;39.61;102095.00;146599;573;47011;-76
2021/12/23 11:01:17;;;;;;;;;31.75;27.50;;;;;14.08;38.80;102100.34;146601;563;47010;-77
2021/12/23 11:04:11;;;;;;;;;25.50;23.75;;;;;14.06;39.13;102090.63;146600;715;45917;-77
2021/12/23 11:07:22;;;;;;;;;28.75;26.50;;;;;14.07;39.64;102081.97;146601;671;46008;-78
2021/12/23 11:10:36;;;;;;;;;36.75;31.00;;;;;14.07;39.70;102079.38;146597;577;46012;-77
2021/12/23 11:40:10;;;;;;;;;35.75;31.00;;;;;14.52;38.49;102049.84;146599;675;46022;-77
2021/12/23 11:46:15;;;;;;;;;25.75;22.25;;;;;14.51;37.96;102053.25;146603;680;46020;-78
2021/12/23 11:49:10;;;;;;;;;37.00;31.25;;;;;14.59;38.28;102048.47;146597;617;46010;-76
2021/12/23 11:52:01;;;;;;;;;22.50;21.50;;;;;14.65;36.55;102038.38;146603;682;46008;-75
2021/12/23 11:54:55;;;;;;;;;21.50;21.00;;;;;14.66;37.44;102041.88;146601;610;46016;-75
2021/12/23 11:57:48;;;;;;;;;25.50;21.50;;;;;13.93;37.47;101897.75;146602;569;47008;-75
2021/12/23 12:00:43;;;;;;;;;29.75;26.75;;;;;14.70;36.20;102029.09;146602;595;46916;-76
2021/12/23 12:03:40;;;;;;;;;24.50;21.00;;;;;14.70;36.18;102028.16;146603;564;46020;-77
2021/12/23 12:06:45;;;;;;;;;19.50;18.75;;;;;14.78;37.50;102025.16;146599;581;46016;-76
2021/12/23 12:09:38;;;;;;;;;26.75;24.75;;;;;14.93;37.43;102027.72;146602;586;46020;-76
2021/12/23 12:12:33;;;;;;;;;29.50;28.00;;;;;15.04;36.36;102024.78;146600;615;46016;-75
2021/12/23 12:15:48;;;;;;;;;29.50;24.00;;;;;15.15;38.23;102028.88;146603;588;47008;-76
2021/12/23 12:18:49;;;;;;;;;35.25;27.75;;;;;15.23;37.43;102024.94;146598;566;46016;-76
2021/12/23 12:21:46;;;;;;;;;30.25;26.25;;;;;15.41;36.96;102011.94;146600;615;46020;-76
2021/12/23 12:24:49;;;;;;;;;27.00;26.75;;;;;15.58;37.44;102011.12;146598;694;46016;-76
2021/12/23 12:27:43;;;;;;;;;22.25;18.75;;;;;15.68;35.75;102002.06;146598;566;46029;-78
2021/12/23 12:30:46;;;;;;;;;27.75;25.25;;;;;15.75;35.67;101992.81;146596;584;47010;-73
2021/12/23 12:33:52;;;;;;;;;22.50;21.00;;;;;15.73;35.45;101990.09;146602;578;46008;-77
2021/12/23 12:36:53;;;;;;;;;13.75;13.25;;;;;15.68;36.04;101995.09;146599;638;46016;-77
2021/12/23 12:39:51;;;;;;;;;24.75;21.75;;;;;15.80;35.82;101996.56;146599;633;47008;-76
2021/12/23 12:42:47;;;;;;;;;25.25;19.25;;;;;16.14;34.62;101986.94;146598;592;46017;-75
2021/12/23 12:45:40;;;;;;;;;33.75;29.00;;;;;16.42;35.40;101988.28;146602;598;46008;-78
2021/12/23 12:49:22;;;;;;;;;37.00;30.25;;;;;16.64;38.69;101987.56;146600;577;46017;-76
2021/12/23 12:52:19;;;;;;;;;24.25;21.50;;;;;16.10;35.20;101854.16;146603;600;46008;-74
2021/12/23 12:55:23;;;;;;;;;20.75;18.00;;;;;16.90;34.62;101994.03;146599;577;46033;-78
2021/12/23 12:58:15;;;;;;;;;19.25;16.50;;;;;16.91;34.02;101987.03;146606;591;46008;-77
2021/12/23 13:01:08;;;;;;;;;14.25;13.25;;;;;16.96;33.20;101990.78;146597;746;47012;-78
2021/12/23 13:04:01;;;;;;;;;18.50;16.50;;;;;17.03;33.80;101987.59;146603;570;46008;-77
2021/12/23 13:06:55;;;;;;;;;20.75;17.50;;;;;17.16;33.92;101979.47;146598;586;46024;-77
2021/12/23 13:10:06;;;;;;;;;17.75;17.25;;;;;17.32;34.90;101991.53;146601;619;46020;-78
2021/12/23 13:13:06;;;;;;;;;29.25;27.00;;;;;17.30;33.73;101982.69;146597;584;47010;-78
2021/12/23 13:15:58;;;;;;;;;23.25;18.75;;;;;17.30;33.80;101983.59;146604;571;46020;-78
2021/12/23 13:18:52;;;;;;;;;14.75;14.75;;;;;17.39;33.15;101967.38;146598;607;46017;-77
2021/12/23 13:21:50;;;;;;;;;22.00;17.50;;;;;17.47;33.81;101968.56;146601;596;46020;-78
2021/12/23 13:24:42;;;;;;;;;17.00;14.00;;;;;17.39;33.69;101959.50;146595;615;46016;-78
2021/12/23 13:27:34;;;;;;;;;16.25;15.50;;;;;17.34;33.54;101960.13;146601;736;47008;-78
2021/12/23 13:30:26;;;;;;;;;26.75;22.00;;;;;17.36;34.75;101961.09;146600;569;46016;-77
2021/12/23 13:33:19;;;;;;;;;15.75;14.50;;;;;17.37;33.90;101955.03;146604;583;46008;-78
2021/12/23 13:36:50;;;;;;;;;29.00;27.00;;;;;17.31;36.80;101948.66;146597;578;46021;-78
2021/12/23 13:39:43;;;;;;;;;12.75;11.75;;;;;17.32;34.18;101957.47;146603;625;46008;-78
2021/12/23 13:42:35;;;;;;;;;24.50;21.00;;;;;17.27;34.76;101962.50;146599;575;46010;-78
2021/12/23 13:45:28;;;;;;;;;19.75;19.75;;;;;17.17;34.27;101962.03;146601;563;47008;-78
2021/12/23 13:48:20;;;;;;;;;13.00;12.75;;;;;17.02;33.37;101959.63;146600;629;46010;-77
2021/12/23 13:51:13;;;;;;;;;17.50;13.00;;;;;16.81;34.70;101955.19;146605;623;45020;-77
2021/12/23 13:54:10;;;;;;;;;16.25;14.00;;;;;16.77;35.18;101953.28;146598;585;46917;-77
2021/12/23 13:57:03;;;;;;;;;16.25;15.50;;;;;16.74;35.07;101967.91;146604;632;46020;-76
2021/12/23 13:59:55;;;;;;;;;27.25;23.75;;;;;16.71;34.43;101966.06;146603;569;45917;-78
2021/12/23 14:02:51;;;;;;;;;15.00;15.00;;;;;16.59;34.69;101966.38;146602;581;46008;-77
2021/12/23 14:05:49;;;;;;;;;11.00;11.00;;;;;16.47;33.26;101957.06;146599;656;46016;-77
2021/12/23 14:08:46;;;;;;;;;10.50;9.00;;;;;16.33;34.77;101956.41;146601;678;46008;-78
2021/12/23 14:11:38;;;;;;;;;12.00;11.00;;;;;16.24;34.70;101958.59;146596;592;47010;-77
2021/12/23 14:14:30;;;;;;;;;15.25;12.25;;;;;16.16;34.22;101955.59;146602;618;46020;-79
2021/12/23 14:17:34;;;;;;;;;13.50;11.75;;;;;15.94;36.23;101953.66;146600;628;46016;-77
2021/12/23 14:23:48;;;;;;;;;14.50;12.50;;;;;15.39;35.95;101946.56;146600;570;46016;-77
2021/12/23 14:26:41;;;;;;;;;11.75;11.00;;;;;15.20;35.85;101949.94;146605;629;45031;-77
2021/12/23 14:29:37;;;;;;;;;12.75;11.75;;;;;15.11;36.58;101948.53;146599;602;46896;-77
2021/12/23 14:32:29;;;;;;;;;15.25;13.00;;;;;15.01;36.55;101948.06;146604;573;46021;-76